Overview Statistics Trail Chart Weather Telemetry Raw packets
 

This is the latest recevied weather packets stored in our database for station/object IW1CBG-3. If no packets are shown the sender has not sent any weather packets the latest 10 day(s).

<< 30 31 32 33 34 35 36 >>
Time Temp. Humidity Pressure Rain* Wind** Luminosity Snow
1787923318 26.67° C 74% 1023.5 hPa 0 mm - - -
1787922718 26.67° C 76% 1023.4 hPa 0 mm - - -
1787922120 26.67° C 75% 1023.5 hPa 0 mm - - -
1787902748 22.22° C 85% 1028.3 hPa 0 mm - - -
1787902148 22.22° C 85% 1027.7 hPa 0 mm - - -
1787901549 21.11° C 85% 1027.3 hPa 0 mm - - -
1787900947 20.56° C 88% 1027.4 hPa 0 mm - - -
1787900348 20.56° C 89% 1027.9 hPa 0 mm - - -
1787899748 20.56° C 89% 1027.5 hPa 0 mm - - -
1787899147 20° C 89% 1027.7 hPa 0 mm - - -
1787898548 20° C 90% 1027.7 hPa 0 mm - - -
1787897948 19.44° C 94% 1027.9 hPa 0 mm - - -
1787897348 18.89° C 94% 1027.3 hPa 0 mm - - -
1787896749 18.89° C 95% 1027.9 hPa 0 mm - - -
1787896148 18.89° C 95% 1028.4 hPa 0 mm - - -
1787895548 18.89° C 95% 1028.9 hPa 0 mm - - -
1787894949 18.33° C 95% 1028.6 hPa 0 mm - - -
1787894348 18.33° C 95% 1028.6 hPa 0 mm - - -
1787893748 18.33° C 96% 1028.7 hPa 0 mm - - -
1787893147 18.33° C 96% 1028.6 hPa 0 mm - - -
1787892551 18.33° C 96% 1028.8 hPa 0 mm - - -
1787891947 18.33° C 96% 1029.1 hPa 0 mm - - -
1787891348 18.33° C 96% 1028.2 hPa 0 mm - - -
1787890747 18.33° C 95% 1028.3 hPa 0 mm - - -
1787890147 18.89° C 95% 1028.5 hPa 0 mm - - -

* Rain latest hour (hover to see other rain measurements)
** Current wind speed in m/s (hover to see current wind gust speed)